createdAt,value
2019-04-20T00:01:31.960Z,61.30
2019-04-20T00:03:58.653Z,61.50
2019-04-20T00:06:31.676Z,62.10
2019-04-20T00:09:12.263Z,62.50
2019-04-20T00:11:50.705Z,62.30
2019-04-20T00:14:13.482Z,62.70
2019-04-20T00:16:37.828Z,62.60
2019-04-20T00:19:08.561Z,62.50
2019-04-20T00:21:53.635Z,62.60
2019-04-20T00:24:23.442Z,62.50
2019-04-20T00:27:15.917Z,62.50
2019-04-20T00:29:40.003Z,62.80
2019-04-20T00:32:02.790Z,62.70
2019-04-20T00:34:25.594Z,62.70
2019-04-20T00:36:51.845Z,62.80
2019-04-20T00:39:21.792Z,63.20
2019-04-20T00:41:56.072Z,63.50
2019-04-20T00:44:27.550Z,63.80
2019-04-20T00:47:05.484Z,63.60
2019-04-20T00:49:36.035Z,63.50
2019-04-20T00:52:18.695Z,63.40
2019-04-20T00:54:22.285Z,63.40
2019-04-20T00:56:53.159Z,63.60
2019-04-20T00:59:35.377Z,63.50
2019-04-20T01:02:10.618Z,63.10
2019-04-20T01:04:46.199Z,63.40
2019-04-20T01:07:06.307Z,63.60
2019-04-20T01:09:26.491Z,63.80
2019-04-20T01:11:56.500Z,63.70
2019-04-20T01:14:43.646Z,63.60
2019-04-20T01:17:11.806Z,63.00
2019-04-20T01:19:34.988Z,63.20
2019-04-20T01:22:09.141Z,63.20
2019-04-20T01:24:37.166Z,62.80
2019-04-20T01:27:06.987Z,62.90
2019-04-20T01:29:41.151Z,63.20
2019-04-20T01:32:15.633Z,63.10
2019-04-20T01:34:47.161Z,63.10
2019-04-20T01:37:23.975Z,62.90
2019-04-20T01:39:43.219Z,62.90
2019-04-20T01:42:06.499Z,63.50
2019-04-20T01:44:41.240Z,63.00
2019-04-20T01:47:08.255Z,62.90
2019-04-20T01:49:38.442Z,63.30
2019-04-20T01:52:16.084Z,62.80
2019-04-20T01:55:03.543Z,62.90
2019-04-20T01:57:33.101Z,62.50
2019-04-20T02:00:07.158Z,62.50
2019-04-20T02:02:45.069Z,62.90
2019-04-20T02:05:16.653Z,63.00
2019-04-20T02:08:00.235Z,62.90
2019-04-20T02:10:39.552Z,62.80
2019-04-20T02:13:02.883Z,63.50
2019-04-20T02:15:37.921Z,63.10
2019-04-20T02:18:16.457Z,63.30
2019-04-20T02:20:48.573Z,63.70
2019-04-20T02:23:16.465Z,63.50
2019-04-20T02:25:31.247Z,63.60
2019-04-20T02:28:19.020Z,63.80
2019-04-20T02:31:04.655Z,64.00
2019-04-20T02:33:47.534Z,64.20
2019-04-20T02:36:21.083Z,63.80
2019-04-20T02:39:05.855Z,64.00
2019-04-20T02:41:11.627Z,64.20
2019-04-20T02:44:06.393Z,64.50
2019-04-20T02:46:07.137Z,64.40
2019-04-20T02:48:57.867Z,64.50
2019-04-20T02:51:13.317Z,65.00
2019-04-20T02:53:51.771Z,64.80
2019-04-20T02:58:56.199Z,64.50
2019-04-20T03:01:22.172Z,64.40
2019-04-20T03:03:42.753Z,64.30
2019-04-20T03:06:18.290Z,64.30
2019-04-20T03:08:56.344Z,64.50
2019-04-20T03:11:31.938Z,64.70
2019-04-20T03:13:57.826Z,65.10
2019-04-20T03:16:24.283Z,65.10
2019-04-20T03:18:54.621Z,65.30
2019-04-20T03:21:34.534Z,65.40
2019-04-20T03:24:06.353Z,65.50
2019-04-20T03:26:36.772Z,65.40
2019-04-20T03:29:18.837Z,65.60
2019-04-20T03:32:57.333Z,65.50
2019-04-20T03:37:26.714Z,65.80
2019-04-20T03:39:45.750Z,65.80
2019-04-20T03:42:01.037Z,66.00
2019-04-20T03:44:32.901Z,65.80
2019-04-20T03:47:06.343Z,65.50
2019-04-20T03:49:55.099Z,65.60
2019-04-20T03:52:28.780Z,65.50
2019-04-20T03:54:55.267Z,65.70
2019-04-20T03:57:34.654Z,65.50
2019-04-20T04:00:30.518Z,65.70
2019-04-20T04:03:41.031Z,65.70
2019-04-20T04:05:47.976Z,66.10
2019-04-20T04:08:15.941Z,66.30
2019-04-20T04:10:54.912Z,66.80
2019-04-20T04:13:11.780Z,66.70
2019-04-20T04:15:48.324Z,66.60
2019-04-20T04:18:23.281Z,66.50
2019-04-20T04:20:52.134Z,66.50
2019-04-20T04:23:33.711Z,66.50
2019-04-20T04:26:07.287Z,66.30
2019-04-20T04:28:31.190Z,66.80
2019-04-20T04:31:10.954Z,67.10
2019-04-20T04:34:30.704Z,67.70
2019-04-20T04:36:08.911Z,68.20
2019-04-20T04:38:44.183Z,68.40
2019-04-20T04:41:17.085Z,68.50
2019-04-20T04:43:37.020Z,68.80
2019-04-20T04:45:51.326Z,69.00
2019-04-20T04:48:27.655Z,69.20
2019-04-20T04:50:57.322Z,69.20
2019-04-20T04:53:34.794Z,69.20
2019-04-20T04:55:58.312Z,69.20
2019-04-20T04:58:21.843Z,69.50
2019-04-20T05:00:51.499Z,69.60
2019-04-20T05:03:42.773Z,69.40
2019-04-20T05:06:26.494Z,69.80
2019-04-20T05:08:49.754Z,69.30
2019-04-20T05:11:15.255Z,69.80
2019-04-20T05:13:52.087Z,70.20
2019-04-20T05:16:37.312Z,70.20
2019-04-20T05:19:10.071Z,70.20
2019-04-20T05:21:42.684Z,70.50
2019-04-20T05:24:20.753Z,70.50
2019-04-20T05:26:56.884Z,70.50
2019-04-20T05:29:13.441Z,70.70
2019-04-20T05:31:46.192Z,70.60
2019-04-20T05:34:26.070Z,70.70
2019-04-20T05:36:57.529Z,70.50
2019-04-20T05:39:46.525Z,70.30
2019-04-20T05:42:22.087Z,70.10
2019-04-20T05:44:54.158Z,70.40
2019-04-20T05:47:18.161Z,70.40
2019-04-20T05:49:48.501Z,70.10
2019-04-20T05:52:31.712Z,70.10
2019-04-20T05:54:50.824Z,70.00
2019-04-20T05:57:30.154Z,70.00
2019-04-20T06:00:05.463Z,69.50
2019-04-20T06:02:27.396Z,69.90
2019-04-20T06:07:31.172Z,69.80
2019-04-20T06:09:59.940Z,69.60
2019-04-20T06:12:31.689Z,69.50
2019-04-20T06:15:13.244Z,69.90
2019-04-20T06:18:02.821Z,69.40
2019-04-20T06:20:42.394Z,69.50
2019-04-20T06:23:39.933Z,69.40
2019-04-20T06:26:12.881Z,69.50
2019-04-20T06:28:26.803Z,69.40
2019-04-20T06:30:59.176Z,69.30
2019-04-20T06:36:46.952Z,68.40
2019-04-20T06:39:18.697Z,68.20
2019-04-20T06:42:02.010Z,67.70
2019-04-20T06:44:14.768Z,67.20
2019-04-20T06:46:57.036Z,66.80
2019-04-20T06:49:24.432Z,66.40
2019-04-20T06:52:17.193Z,66.00
2019-04-20T06:54:47.097Z,65.30
2019-04-20T06:57:13.942Z,64.90
2019-04-20T06:59:43.136Z,64.50
2019-04-20T07:04:47.466Z,64.30
2019-04-20T07:07:18.506Z,63.20
2019-04-20T07:09:52.950Z,62.50
2019-04-20T07:12:12.520Z,61.30
2019-04-20T07:14:40.543Z,60.70
2019-04-20T07:17:31.626Z,59.90
2019-04-20T07:20:04.294Z,59.10
2019-04-20T07:22:40.767Z,58.60
2019-04-20T07:25:08.055Z,57.60
2019-04-20T07:27:41.546Z,57.20
2019-04-20T07:30:12.077Z,56.80
2019-04-20T07:32:49.851Z,56.20
2019-04-20T07:35:09.365Z,54.90
2019-04-20T07:38:08.877Z,54.10
2019-04-20T07:40:20.367Z,53.50
2019-04-20T07:42:51.810Z,53.40
2019-04-20T07:45:28.392Z,53.30
2019-04-20T07:47:58.689Z,53.10
2019-04-20T07:50:17.145Z,52.60
2019-04-20T07:52:43.872Z,52.70
2019-04-20T07:55:44.514Z,52.10
2019-04-20T07:57:47.379Z,52.10
2019-04-20T08:00:35.473Z,52.60
2019-04-20T08:03:18.585Z,51.60
2019-04-20T08:05:43.021Z,51.40
2019-04-20T08:08:27.172Z,51.30
2019-04-20T08:10:52.387Z,51.40
2019-04-20T08:13:36.528Z,51.10
2019-04-20T08:15:57.030Z,50.60
2019-04-20T08:18:27.720Z,50.30
2019-04-20T08:20:57.668Z,49.70
2019-04-20T08:23:38.854Z,49.90
2019-04-20T08:25:47.393Z,49.90
2019-04-20T08:28:16.720Z,49.10
2019-04-20T08:31:09.082Z,49.20
2019-04-20T08:34:01.785Z,49.40
2019-04-20T08:36:25.729Z,49.20
2019-04-20T08:41:23.237Z,49.60
2019-04-20T08:43:59.036Z,50.10
2019-04-20T08:46:25.202Z,49.60
2019-04-20T08:48:56.811Z,49.20
2019-04-20T08:51:38.649Z,49.40
2019-04-20T08:53:57.037Z,49.10
2019-04-20T08:56:21.881Z,49.30
2019-04-20T08:58:39.102Z,49.30
2019-04-20T09:01:13.975Z,49.30
2019-04-20T09:03:49.701Z,49.10
2019-04-20T09:06:25.342Z,48.60
2019-04-20T09:08:50.850Z,48.60
2019-04-20T09:11:39.217Z,48.80
2019-04-20T09:13:47.717Z,49.10
2019-04-20T09:16:13.146Z,48.80
2019-04-20T09:18:50.326Z,48.70
2019-04-20T09:21:25.312Z,48.50
2019-04-20T09:24:10.532Z,48.10
2019-04-20T09:26:37.186Z,48.20
2019-04-20T09:29:04.844Z,48.20
2019-04-20T09:31:35.852Z,48.10
2019-04-20T09:34:21.698Z,48.00
2019-04-20T09:36:49.317Z,48.40
2019-04-20T09:39:20.968Z,48.30
2019-04-20T09:42:01.190Z,48.70
2019-04-20T09:44:35.668Z,48.20
2019-04-20T09:47:03.298Z,48.60
2019-04-20T09:49:42.812Z,49.00
2019-04-20T09:52:15.681Z,48.80
2019-04-20T09:54:51.332Z,48.90
2019-04-20T09:57:22.900Z,49.30
2019-04-20T09:59:50.037Z,47.90
2019-04-20T10:02:10.231Z,48.40
2019-04-20T10:04:33.432Z,48.80
2019-04-20T10:07:10.382Z,48.50
2019-04-20T10:09:38.127Z,48.40
2019-04-20T10:12:03.890Z,48.50
2019-04-20T10:14:33.095Z,48.70
2019-04-20T10:17:02.448Z,47.50
2019-04-20T10:19:34.680Z,47.00
2019-04-20T10:22:04.651Z,47.40
2019-04-20T10:24:34.760Z,46.00
2019-04-20T10:27:03.593Z,46.00
2019-04-20T10:29:33.480Z,46.10
2019-04-20T10:32:08.833Z,45.30
2019-04-20T10:34:34.618Z,45.30
2019-04-20T10:37:27.350Z,45.70
2019-04-20T10:39:56.580Z,45.40
2019-04-20T10:42:26.115Z,45.60
2019-04-20T10:44:57.089Z,45.20
2019-04-20T10:47:25.334Z,44.60
2019-04-20T10:49:56.329Z,44.20
2019-04-20T10:52:25.725Z,44.00
2019-04-20T10:54:54.463Z,44.30
2019-04-20T10:57:23.727Z,44.70
2019-04-20T10:59:52.468Z,44.10
2019-04-20T11:02:43.044Z,43.90
2019-04-20T11:05:10.921Z,44.00
2019-04-20T11:07:40.570Z,42.80
2019-04-20T11:10:15.744Z,43.50
2019-04-20T11:13:01.201Z,43.60
2019-04-20T11:15:30.452Z,43.40
2019-04-20T11:17:59.672Z,42.50
2019-04-20T11:20:28.743Z,42.80
2019-04-20T11:23:00.238Z,41.80
2019-04-20T11:25:30.308Z,41.90
2019-04-20T11:27:59.043Z,41.20
2019-04-20T11:30:27.981Z,41.40
2019-04-20T11:33:02.431Z,41.30
2019-04-20T11:35:39.331Z,40.60
2019-04-20T11:38:10.742Z,41.20
2019-04-20T11:40:39.168Z,40.90
2019-04-20T11:43:08.228Z,41.00
2019-04-20T11:45:36.868Z,39.90
2019-04-20T11:48:07.518Z,40.50
2019-04-20T11:50:37.764Z,39.50
2019-04-20T11:53:07.063Z,39.30
2019-04-20T11:55:36.231Z,39.30
2019-04-20T11:58:05.918Z,39.20
2019-04-20T12:00:52.180Z,39.40
2019-04-20T12:03:24.870Z,39.50
2019-04-20T12:05:53.317Z,39.30
2019-04-20T12:08:18.678Z,39.80
2019-04-20T12:10:54.092Z,38.70
2019-04-20T12:13:20.453Z,38.00
2019-04-20T12:15:49.697Z,38.70
2019-04-20T12:18:19.815Z,37.10
2019-04-20T12:20:48.778Z,37.00
2019-04-20T12:23:18.038Z,36.50
2019-04-20T12:25:48.053Z,37.00
2019-04-20T12:28:17.963Z,37.00
2019-04-20T12:30:47.937Z,37.50
2019-04-20T12:33:17.803Z,37.40
2019-04-20T12:35:48.350Z,37.10
2019-04-20T12:38:17.243Z,37.30
2019-04-20T12:40:46.166Z,37.50
2019-04-20T12:43:15.167Z,35.80
2019-04-20T12:45:44.252Z,36.30
2019-04-20T12:48:13.494Z,35.80
2019-04-20T12:50:43.771Z,36.20
2019-04-20T12:53:12.885Z,35.20
2019-04-20T12:55:41.695Z,35.70
2019-04-20T12:58:10.613Z,36.00
2019-04-20T13:00:49.912Z,35.30
2019-04-20T13:03:19.519Z,35.60
2019-04-20T13:05:50.026Z,34.50
2019-04-20T13:08:27.216Z,34.80
2019-04-20T13:10:58.378Z,34.80
2019-04-20T13:13:30.576Z,34.80
2019-04-20T13:16:08.035Z,34.40
2019-04-20T13:18:39.216Z,34.90
2019-04-20T13:21:09.253Z,35.10
2019-04-20T13:23:38.375Z,34.80
2019-04-20T13:26:08.686Z,35.40
2019-04-20T13:28:37.299Z,34.50
2019-04-20T13:31:06.180Z,35.00
2019-04-20T13:33:36.897Z,34.40
2019-04-20T13:36:06.378Z,32.30
2019-04-20T13:38:36.267Z,34.40
2019-04-20T13:41:06.187Z,32.80
2019-04-20T13:43:35.511Z,33.10
2019-04-20T13:46:04.937Z,33.00
2019-04-20T13:48:35.109Z,32.80
2019-04-20T13:51:05.408Z,32.50
2019-04-20T13:53:35.047Z,32.20
2019-04-20T13:56:04.048Z,32.60
2019-04-20T13:58:49.622Z,30.60
2019-04-20T14:01:37.001Z,32.00
2019-04-20T14:04:16.861Z,30.80
2019-04-20T14:06:46.069Z,31.00
2019-04-20T14:09:17.202Z,31.40
2019-04-20T14:11:47.386Z,30.10
2019-04-20T14:14:17.182Z,31.20
2019-04-20T14:16:47.288Z,31.30
2019-04-20T14:19:25.098Z,30.30
2019-04-20T14:21:54.275Z,28.90
2019-04-20T14:24:42.739Z,29.60
2019-04-20T14:27:12.852Z,29.80
2019-04-20T14:29:43.111Z,29.80
2019-04-20T14:32:12.216Z,29.90
2019-04-20T14:34:41.240Z,30.00
2019-04-20T14:37:11.034Z,30.50
2019-04-20T14:39:40.550Z,30.30
2019-04-20T14:42:23.331Z,30.80
2019-04-20T14:44:41.724Z,29.70
2019-04-20T14:47:11.830Z,30.10
2019-04-20T14:49:40.911Z,30.30
2019-04-20T14:52:09.608Z,29.20
2019-04-20T14:54:41.462Z,28.10
2019-04-20T14:57:11.613Z,29.60
2019-04-20T14:59:43.437Z,31.00
2019-04-20T15:02:15.232Z,31.80
2019-04-20T15:04:45.341Z,30.20
2019-04-20T15:07:15.005Z,30.70
2019-04-20T15:09:44.658Z,31.10
2019-04-20T15:12:14.815Z,31.20
2019-04-20T15:14:44.945Z,31.00
2019-04-20T15:17:15.723Z,31.70
2019-04-20T15:19:52.077Z,31.40
2019-04-20T15:22:31.685Z,30.80
2019-04-20T15:25:01.032Z,32.30
2019-04-20T15:27:30.364Z,31.80
2019-04-20T15:30:00.270Z,31.30
2019-04-20T15:32:29.309Z,31.70
2019-04-20T15:34:58.223Z,32.20
2019-04-20T15:37:26.996Z,31.60
2019-04-20T15:39:57.020Z,31.00
2019-04-20T15:42:29.578Z,31.10
2019-04-20T15:44:59.074Z,31.20
2019-04-20T15:47:28.008Z,32.00
2019-04-20T15:49:58.076Z,32.50
2019-04-20T15:52:33.634Z,31.70
2019-04-20T15:55:01.767Z,31.60
2019-04-20T15:57:29.749Z,32.00
2019-04-20T15:59:58.665Z,31.20
2019-04-20T16:02:31.681Z,32.30
2019-04-20T16:05:08.157Z,33.20
2019-04-20T16:07:39.136Z,32.80
2019-04-20T16:10:09.551Z,33.70
2019-04-20T16:12:38.753Z,34.10
2019-04-20T16:15:09.339Z,33.50
2019-04-20T16:17:43.562Z,34.10
2019-04-20T16:20:14.739Z,34.50
2019-04-20T16:22:40.605Z,34.30
2019-04-20T16:25:17.604Z,34.20
2019-04-20T16:27:47.622Z,34.60
2019-04-20T16:30:18.096Z,34.20
2019-04-20T16:32:46.676Z,34.50
2019-04-20T16:35:16.295Z,34.40
2019-04-20T16:37:54.039Z,35.00
2019-04-20T16:40:23.436Z,34.00
2019-04-20T16:42:52.338Z,34.10
2019-04-20T16:45:21.347Z,34.50
2019-04-20T16:47:50.450Z,34.50
2019-04-20T16:50:21.002Z,34.60
2019-04-20T16:52:50.675Z,34.10
2019-04-20T16:55:20.689Z,34.90
2019-04-20T16:57:51.199Z,35.20
2019-04-20T17:00:20.287Z,36.20
2019-04-20T17:02:50.119Z,36.40
2019-04-20T17:05:19.226Z,36.00
2019-04-20T17:07:50.884Z,35.90
2019-04-20T17:10:23.496Z,35.20
2019-04-20T17:12:51.611Z,35.40
2019-04-20T17:15:21.492Z,35.50
2019-04-20T17:17:52.850Z,35.70
2019-04-20T17:20:21.989Z,35.70
2019-04-20T17:22:51.356Z,35.00
2019-04-20T17:25:19.989Z,35.10
2019-04-20T17:27:59.467Z,35.60
2019-04-20T17:30:47.809Z,35.80
2019-04-20T17:33:24.822Z,36.30
2019-04-20T17:36:10.919Z,36.50
2019-04-20T17:38:37.673Z,36.60
2019-04-20T17:41:16.539Z,37.00
2019-04-20T17:43:50.702Z,37.60
2019-04-20T17:46:12.106Z,37.20
2019-04-20T17:49:09.632Z,36.70
2019-04-20T17:51:49.159Z,36.90
2019-04-20T17:54:04.560Z,37.50
2019-04-20T17:56:30.697Z,37.20
2019-04-20T17:58:59.494Z,37.60
2019-04-20T18:01:41.018Z,38.20
2019-04-20T18:04:34.037Z,38.40
2019-04-20T18:06:47.905Z,38.60
2019-04-20T18:09:18.440Z,39.00
2019-04-20T18:11:40.633Z,39.20
2019-04-20T18:14:27.545Z,39.50
2019-04-20T18:16:56.271Z,39.80
2019-04-20T18:19:21.914Z,39.30
2019-04-20T18:21:51.782Z,39.10
2019-04-20T18:24:46.310Z,39.00
2019-04-20T18:27:08.326Z,39.60
2019-04-20T18:29:40.919Z,39.30
2019-04-20T18:31:53.778Z,39.70
2019-04-20T18:34:29.114Z,40.20
2019-04-20T18:37:02.144Z,40.00
2019-04-20T18:39:40.038Z,39.90
2019-04-20T18:42:10.157Z,40.20
2019-04-20T18:44:54.193Z,40.90
2019-04-20T18:47:16.743Z,41.00
2019-04-20T18:49:43.424Z,41.10
2019-04-20T18:52:02.004Z,41.30
2019-04-20T18:54:34.378Z,41.70
2019-04-20T18:57:01.639Z,41.90
2019-04-20T18:59:40.055Z,42.30
2019-04-20T19:02:01.237Z,42.50
2019-04-20T19:04:30.338Z,42.80
2019-04-20T19:06:59.564Z,43.10
2019-04-20T19:09:30.401Z,43.40
2019-04-20T19:12:02.866Z,43.70
2019-04-20T19:14:40.803Z,43.90
2019-04-20T19:17:40.411Z,44.00
2019-04-20T19:20:14.026Z,44.20
2019-04-20T19:22:44.022Z,44.50
2019-04-20T19:25:18.361Z,44.90
2019-04-20T19:27:48.705Z,45.20
2019-04-20T19:30:26.655Z,45.60
2019-04-20T19:33:04.862Z,45.90
2019-04-20T19:35:32.253Z,46.10
2019-04-20T19:38:00.926Z,46.40
2019-04-20T19:40:33.740Z,46.90
2019-04-20T19:43:03.990Z,47.10
2019-04-20T19:45:42.380Z,47.30
2019-04-20T19:48:06.031Z,47.50
2019-04-20T19:50:45.971Z,47.80
2019-04-20T19:53:19.983Z,48.10
2019-04-20T19:55:40.092Z,48.60
2019-04-20T19:58:09.683Z,49.10
2019-04-20T20:00:25.219Z,49.50
2019-04-20T20:02:54.166Z,49.70
2019-04-20T20:05:33.105Z,49.80
2019-04-20T20:08:03.874Z,50.10
2019-04-20T20:10:44.504Z,50.40
2019-04-20T20:13:14.963Z,50.30
2019-04-20T20:15:45.527Z,50.90
2019-04-20T20:18:29.470Z,51.10
2019-04-20T20:20:59.487Z,51.20
2019-04-20T20:23:16.157Z,51.60
2019-04-20T20:25:48.164Z,51.90
2019-04-20T20:28:29.809Z,52.10
2019-04-20T20:30:56.844Z,52.20
2019-04-20T20:33:36.347Z,52.50
2019-04-20T20:35:58.562Z,52.60
2019-04-20T20:38:25.603Z,52.70
2019-04-20T20:41:01.555Z,52.70
2019-04-20T20:43:31.843Z,52.70
2019-04-20T20:46:01.373Z,52.60
2019-04-20T20:48:30.236Z,52.70
2019-04-20T20:51:03.779Z,53.20
2019-04-20T20:53:35.314Z,53.10
2019-04-20T20:56:03.962Z,54.00
2019-04-20T20:58:33.688Z,53.50
2019-04-20T21:00:59.697Z,53.70
2019-04-20T21:03:28.015Z,53.40
2019-04-20T21:05:51.594Z,53.20
2019-04-20T21:08:21.702Z,53.20
2019-04-20T21:10:51.090Z,53.60
2019-04-20T21:13:21.274Z,53.60
2019-04-20T21:15:54.168Z,54.00
2019-04-20T21:18:42.239Z,54.20
2019-04-20T21:21:06.434Z,54.00
2019-04-20T21:23:34.098Z,54.20
2019-04-20T21:26:17.801Z,54.50
2019-04-20T21:28:42.033Z,54.70
2019-04-20T21:31:18.086Z,54.70
2019-04-20T21:33:42.882Z,54.70
2019-04-20T21:36:13.455Z,54.70
2019-04-20T21:38:50.148Z,54.70
2019-04-20T21:41:22.032Z,54.20
2019-04-20T21:43:49.844Z,54.20
2019-04-20T21:46:18.800Z,54.40
2019-04-20T21:49:00.710Z,55.10
2019-04-20T21:51:30.632Z,55.50
2019-04-20T21:53:48.423Z,55.70
2019-04-20T21:56:17.701Z,55.80
2019-04-20T21:58:50.463Z,55.60
2019-04-20T22:01:27.292Z,55.40
2019-04-20T22:03:50.147Z,55.70
2019-04-20T22:06:20.300Z,55.80
2019-04-20T22:08:54.542Z,55.80
2019-04-20T22:11:19.970Z,55.80
2019-04-20T22:13:50.830Z,56.00
2019-04-20T22:19:17.246Z,56.30
2019-04-20T22:21:49.060Z,56.60
2019-04-20T22:24:15.211Z,56.60
2019-04-20T22:26:41.493Z,56.70
2019-04-20T22:29:08.085Z,56.70
2019-04-20T22:31:38.150Z,56.70
2019-04-20T22:34:15.004Z,56.10
2019-04-20T22:36:41.960Z,56.10
2019-04-20T22:39:22.535Z,56.10
2019-04-20T22:41:59.264Z,56.10
2019-04-20T22:44:24.235Z,56.30
2019-04-20T22:46:52.191Z,56.50
2019-04-20T22:49:38.937Z,56.70
2019-04-20T22:52:00.623Z,56.80
2019-04-20T22:54:36.443Z,57.00
2019-04-20T22:57:03.396Z,57.40
2019-04-20T22:59:37.220Z,57.50
2019-04-20T23:01:59.968Z,57.60
2019-04-20T23:04:24.701Z,57.80
2019-04-20T23:06:54.120Z,57.90
2019-04-20T23:09:24.760Z,58.10
2019-04-20T23:12:01.032Z,58.30
2019-04-20T23:14:24.622Z,58.40
2019-04-20T23:16:55.344Z,58.70
2019-04-20T23:19:34.311Z,58.80
2019-04-20T23:21:59.770Z,58.60
2019-04-20T23:24:24.251Z,58.40
2019-04-20T23:26:53.185Z,58.40
2019-04-20T23:29:28.339Z,58.50
2019-04-20T23:31:59.407Z,58.60
2019-04-20T23:34:26.620Z,58.70
2019-04-20T23:36:54.667Z,58.80
2019-04-20T23:39:32.289Z,59.00
2019-04-20T23:41:59.589Z,59.20
2019-04-20T23:44:25.709Z,59.10
2019-04-20T23:47:01.165Z,59.20
2019-04-20T23:49:31.781Z,59.40
2019-04-20T23:52:26.984Z,59.10
2019-04-20T23:54:31.888Z,59.20
2019-04-20T23:56:59.781Z,59.10
2019-04-20T23:59:34.352Z,59.20
